createdAt,value
2023-02-14T00:00:02.644Z,96.0
2023-02-14T00:05:01.941Z,95.1
2023-02-14T00:10:01.938Z,93.9
2023-02-14T00:15:01.666Z,92.4
2023-02-14T00:20:01.775Z,90.8
2023-02-14T00:25:06.598Z,89.4
2023-02-14T00:35:02.155Z,86.3
2023-02-14T00:40:01.539Z,83.9
2023-02-14T00:45:01.672Z,85.9
2023-02-14T00:50:01.888Z,87.8
2023-02-14T00:55:01.744Z,92.2
2023-02-14T01:05:01.651Z,92.1
2023-02-14T01:10:01.691Z,90.3
2023-02-14T01:25:01.884Z,87.8
2023-02-14T01:30:06.746Z,125.0
2023-02-14T01:35:01.706Z,133.9
2023-02-14T01:40:01.595Z,149.4
2023-02-14T01:45:01.683Z,149.6
2023-02-14T01:50:01.646Z,146.4
2023-02-14T02:00:01.706Z,117.3
2023-02-14T02:05:01.786Z,118.6
2023-02-14T02:10:01.668Z,113.3
2023-02-14T02:15:01.777Z,110.8
2023-02-14T02:40:01.393Z,107.0
2023-02-14T03:05:07.083Z,138.4
2023-02-14T03:10:01.738Z,126.7
2023-02-14T03:50:02.011Z,106.4
2023-02-14T04:10:01.674Z,364.0
2023-02-14T04:15:01.222Z,239.3
2023-02-14T04:20:01.146Z,202.7
2023-02-14T04:25:02.267Z,187.1
2023-02-14T04:30:01.533Z,185.1
2023-02-14T04:35:01.227Z,171.5
2023-02-14T04:40:01.198Z,177.8
2023-02-14T04:45:04.912Z,184.2
2023-02-14T04:50:01.211Z,191.1
2023-02-14T04:55:01.299Z,191.6
2023-02-14T05:00:02.310Z,195.8
2023-02-14T05:05:02.759Z,198.2
2023-02-14T05:10:01.795Z,195.5
2023-02-14T05:15:01.274Z,200.4
2023-02-14T05:20:06.327Z,218.7
2023-02-14T05:25:01.368Z,184.9
2023-02-14T05:30:01.763Z,199.6
2023-02-14T05:35:02.367Z,212.6
2023-02-14T05:40:01.239Z,213.6
2023-02-14T05:45:02.248Z,192.6
2023-02-14T05:50:06.875Z,211.1
2023-02-14T05:55:01.350Z,205.1
2023-02-14T06:00:01.582Z,205.0
2023-02-14T06:05:01.285Z,236.0
2023-02-14T06:10:01.231Z,245.2
2023-02-14T06:15:01.626Z,236.0
2023-02-14T06:20:01.241Z,256.2
2023-02-14T06:25:02.376Z,275.2
2023-02-14T06:30:06.644Z,237.3
2023-02-14T06:35:01.313Z,246.2
2023-02-14T06:40:01.246Z,262.2
2023-02-14T06:45:01.276Z,266.8
2023-02-14T06:50:01.232Z,279.4
2023-02-14T06:55:01.353Z,302.7
2023-02-14T07:00:01.378Z,299.6
2023-02-14T07:05:01.313Z,298.2
2023-02-14T07:10:06.244Z,303.2
2023-02-14T07:15:01.287Z,283.7
2023-02-14T07:20:01.336Z,274.5
2023-02-14T07:25:02.388Z,271.8
2023-02-14T07:30:01.440Z,275.3
2023-02-14T07:35:06.399Z,244.8
2023-02-14T07:40:01.237Z,242.4
2023-02-14T07:45:22.599Z,241.5
2023-02-14T07:50:01.574Z,256.6
2023-02-14T07:55:01.471Z,271.7
2023-02-14T08:00:02.292Z,302.7
2023-02-14T08:05:01.818Z,293.4
2023-02-14T08:10:01.241Z,294.0
2023-02-14T08:15:01.393Z,294.9
2023-02-14T08:20:01.251Z,282.1
2023-02-14T08:25:01.292Z,255.1
2023-02-14T08:30:01.862Z,263.0
2023-02-14T08:35:07.074Z,265.3
2023-02-14T08:40:06.209Z,254.3
2023-02-14T08:45:01.276Z,244.7
2023-02-14T08:50:01.275Z,256.4
2023-02-14T08:55:01.393Z,267.9
2023-02-14T09:00:01.311Z,264.8
2023-02-14T09:05:01.430Z,264.6
2023-02-14T09:10:06.473Z,269.2
2023-02-14T09:15:01.321Z,260.4
2023-02-14T09:20:01.571Z,254.7
2023-02-14T09:25:01.327Z,256.8
2023-02-14T09:30:06.592Z,280.9
2023-02-14T09:35:06.433Z,261.6
2023-02-14T09:40:01.290Z,249.6
2023-02-14T09:45:01.404Z,239.1
2023-02-14T09:50:06.950Z,239.7
2023-02-14T09:55:06.333Z,210.5
2023-02-14T10:00:02.327Z,221.2
2023-02-14T10:20:02.246Z,280.8
2023-02-14T10:25:02.296Z,279.6
2023-02-14T10:30:02.102Z,275.3
2023-02-14T10:35:02.039Z,239.8
2023-02-14T10:40:01.953Z,219.7
2023-02-14T11:00:03.329Z,126.0
2023-02-14T11:05:01.925Z,124.7
2023-02-14T11:10:01.629Z,127.7
2023-02-14T11:15:01.639Z,128.8
2023-02-14T11:20:01.950Z,124.9
2023-02-14T11:25:05.118Z,125.1
2023-02-14T11:30:01.702Z,127.6
2023-02-14T11:35:01.664Z,125.7
2023-02-14T11:40:01.711Z,116.4
2023-02-14T11:45:01.616Z,113.0
2023-02-14T11:50:01.706Z,104.5
2023-02-14T11:55:01.676Z,94.4
2023-02-14T12:00:01.739Z,86.2
2023-02-14T12:05:01.728Z,85.9
2023-02-14T12:10:01.636Z,99.4
2023-02-14T12:30:02.453Z,106.2
2023-02-14T12:35:01.850Z,113.8
2023-02-14T12:50:01.372Z,133.6
2023-02-14T13:10:01.897Z,75.6
2023-02-14T13:30:01.519Z,88.6
2023-02-14T13:35:01.386Z,90.5
2023-02-14T13:40:02.390Z,90.1
2023-02-14T13:45:02.609Z,91.1
2023-02-14T13:50:01.335Z,91.4
2023-02-14T13:55:01.677Z,92.6
2023-02-14T14:00:01.363Z,93.2
2023-02-14T14:20:02.192Z,110.2
2023-02-14T14:40:06.784Z,114.4
2023-02-14T14:45:02.619Z,110.3
2023-02-14T14:50:01.552Z,135.9
2023-02-14T14:55:01.554Z,127.0
2023-02-14T15:00:01.526Z,123.5
2023-02-14T15:05:07.596Z,117.2
2023-02-14T15:10:01.422Z,112.6
2023-02-14T15:15:06.578Z,94.4
2023-02-14T15:20:04.063Z,95.0
2023-02-14T15:25:01.482Z,96.7
2023-02-14T15:30:02.027Z,109.2
2023-02-14T15:35:02.718Z,137.3
2023-02-14T15:40:01.799Z,159.2
2023-02-14T15:45:01.607Z,180.0
2023-02-14T16:00:06.762Z,209.6
2023-02-14T16:05:01.633Z,169.4
2023-02-14T16:10:01.767Z,159.3
2023-02-14T16:30:02.352Z,146.4
2023-02-14T16:35:02.158Z,179.4
2023-02-14T16:40:05.282Z,181.3
2023-02-14T16:45:07.805Z,210.7
2023-02-14T16:50:08.195Z,234.5
2023-02-14T16:55:02.623Z,251.9
2023-02-14T17:00:07.030Z,273.8
2023-02-14T17:05:02.123Z,304.1
2023-02-14T17:10:02.365Z,315.7
2023-02-14T17:15:02.069Z,317.3
2023-02-14T17:20:02.000Z,334.9
2023-02-14T17:25:02.459Z,337.3
2023-02-14T17:30:02.328Z,347.2
2023-02-14T17:35:02.271Z,346.0
2023-02-14T17:40:01.942Z,354.0
2023-02-14T17:45:02.217Z,364.7
2023-02-14T17:50:02.125Z,368.0
2023-02-14T17:55:02.041Z,367.4
2023-02-14T18:00:02.255Z,377.2
2023-02-14T18:05:02.514Z,376.8
2023-02-14T18:10:02.113Z,390.2
2023-02-14T18:15:03.779Z,415.5
2023-02-14T18:20:02.075Z,414.8
2023-02-14T18:25:02.621Z,424.8
2023-02-14T18:30:02.502Z,435.4
2023-02-14T18:35:01.999Z,431.8
2023-02-14T18:40:03.244Z,410.1
2023-02-14T18:45:02.131Z,399.9
2023-02-14T18:50:06.952Z,391.4
2023-02-14T18:55:02.238Z,389.4
2023-02-14T19:00:02.240Z,362.8
2023-02-14T19:05:04.740Z,369.1
2023-02-14T19:10:01.926Z,383.7
2023-02-14T19:15:02.379Z,379.8
2023-02-14T19:20:01.984Z,381.9
2023-02-14T19:25:02.083Z,407.8
2023-02-14T19:30:02.006Z,415.8
2023-02-14T19:35:07.653Z,423.8
2023-02-14T19:40:02.271Z,433.4
2023-02-14T19:45:02.436Z,432.0
2023-02-14T19:50:01.896Z,435.3
2023-02-14T19:55:03.302Z,437.5
2023-02-14T20:00:01.908Z,442.1
2023-02-14T20:05:02.025Z,445.5
2023-02-14T20:10:02.174Z,424.2
2023-02-14T20:15:03.430Z,438.6
2023-02-14T20:20:01.897Z,443.9
2023-02-14T20:25:06.976Z,430.7
2023-02-14T20:30:03.109Z,440.4
2023-02-14T20:35:07.062Z,471.7
2023-02-14T20:40:01.924Z,457.3
2023-02-14T20:45:02.015Z,454.7
2023-02-14T20:50:01.835Z,476.5
2023-02-14T20:55:02.019Z,406.5
2023-02-14T21:00:01.830Z,395.8
2023-02-14T21:05:01.932Z,392.1
2023-02-14T21:10:02.960Z,386.5
2023-02-14T21:15:01.894Z,361.7
2023-02-14T21:20:01.869Z,424.2
2023-02-14T21:25:02.274Z,428.5
2023-02-14T21:30:02.233Z,434.0
2023-02-14T21:35:02.312Z,420.5
2023-02-14T21:40:02.294Z,417.5
2023-02-14T21:45:07.622Z,404.9
2023-02-14T21:50:01.862Z,388.4
2023-02-14T21:55:02.238Z,381.6
2023-02-14T22:00:01.945Z,386.6
2023-02-14T22:05:03.242Z,378.4
2023-02-14T22:10:02.118Z,374.0
2023-02-14T22:15:01.829Z,375.6
2023-02-14T22:20:02.073Z,366.7
2023-02-14T22:25:02.216Z,355.2
2023-02-14T22:30:03.149Z,358.7
2023-02-14T22:35:02.739Z,348.0
2023-02-14T22:40:01.805Z,342.0
2023-02-14T22:45:02.000Z,338.9
2023-02-14T22:50:02.119Z,322.6
2023-02-14T22:55:06.899Z,326.7
2023-02-14T23:00:02.093Z,335.2
2023-02-14T23:05:02.525Z,335.2
2023-02-14T23:10:01.787Z,324.6
2023-02-14T23:20:02.097Z,335.5
2023-02-14T23:25:02.220Z,324.0
2023-02-14T23:30:03.071Z,290.7
2023-02-14T23:35:01.905Z,231.2
2023-02-14T23:40:02.097Z,231.7
2023-02-14T23:50:01.784Z,191.5
2023-02-14T23:55:02.136Z,221.5
